Time;durP1;ratioP1;P1;durP2;ratioP2;P2;SDS_P1;SDS_P2;PMS_P1;PMS_P2;Temp;Humidity;BMP_temperature;BMP_pressure;BME280_temperature;BME280_humidity;BME280_pressure;Samples;Min_cycle;Max_cycle;Signal;HPM_P1;HPM_P2
2021/06/10 00:00:40;;;;;;;42.92;36.42;;;18.50;99.90;;;;;;5034595;28;20087;-67
2021/06/10 00:03:05;;;;;;;41.78;36.83;;;18.60;99.90;;;;;;5032322;28;20478;-68
2021/06/10 00:05:32;;;;;;;41.05;36.22;;;18.50;99.90;;;;;;5034162;28;20026;-68
2021/06/10 00:07:58;;;;;;;43.78;35.22;;;18.60;99.90;;;;;;5033848;28;20071;-68
2021/06/10 00:10:26;;;;;;;43.05;37.60;;;18.50;99.90;;;;;;5033876;28;20030;-68
2021/06/10 00:12:53;;;;;;;45.97;38.15;;;18.60;99.90;;;;;;5033865;28;20022;-68
2021/06/10 00:15:21;;;;;;;38.55;34.33;;;18.60;99.90;;;;;;5033572;28;20386;-68
2021/06/10 00:17:48;;;;;;;44.58;35.78;;;18.40;99.90;;;;;;5033823;28;20021;-68
2021/06/10 00:20:16;;;;;;;40.53;36.00;;;18.30;99.90;;;;;;5033896;28;20040;-68
2021/06/10 00:22:42;;;;;;;49.70;38.50;;;18.20;99.90;;;;;;5034264;28;20018;-68
2021/06/10 00:25:09;;;;;;;43.88;39.10;;;18.20;99.90;;;;;;5033427;28;20433;-68
2021/06/10 00:27:35;;;;;;;46.78;38.58;;;18.20;99.90;;;;;;5033345;28;20103;-68
2021/06/10 00:30:01;;;;;;;47.78;41.20;;;18.10;99.90;;;;;;5033582;28;20475;-68
2021/06/10 00:32:27;;;;;;;51.00;42.00;;;18.20;99.90;;;;;;5013699;28;20036;-68
2021/06/10 00:34:53;;;;;;;49.03;41.95;;;18.30;99.90;;;;;;5014283;28;20057;-68
2021/06/10 00:37:18;;;;;;;50.35;41.03;;;18.30;99.90;;;;;;5013813;28;20033;-67
2021/06/10 00:39:44;;;;;;;48.92;41.08;;;18.30;99.90;;;;;;5013105;28;20387;-68
2021/06/10 00:42:10;;;;;;;49.63;43.25;;;18.30;99.90;;;;;;5029612;28;20026;-67
2021/06/10 00:44:36;;;;;;;49.08;42.42;;;18.30;99.90;;;;;;5028444;28;20038;-67
2021/06/10 00:47:02;;;;;;;54.58;43.58;;;18.30;99.90;;;;;;5013686;28;20029;-68
2021/06/10 00:49:28;;;;;;;53.35;45.35;;;18.20;99.90;;;;;;5014159;28;20029;-68
2021/06/10 00:51:54;;;;;;;55.47;45.55;;;18.20;99.90;;;;;;5013580;28;20022;-68
2021/06/10 00:54:21;;;;;;;51.00;44.60;;;18.10;99.90;;;;;;5013609;28;20053;-67
2021/06/10 00:56:49;;;;;;;55.40;45.20;;;18.10;99.90;;;;;;5013589;28;20084;-67
2021/06/10 00:59:15;;;;;;;55.63;45.20;;;18.00;99.90;;;;;;5013454;28;20112;-67
2021/06/10 01:01:41;;;;;;;56.15;47.38;;;18.00;99.90;;;;;;5013612;28;20109;-67
2021/06/10 01:04:06;;;;;;;54.65;46.97;;;18.00;99.90;;;;;;5013334;28;20440;-67
2021/06/10 01:06:58;;;;;;;53.35;45.35;;;17.90;99.90;;;;;;5013466;28;20022;-67
2021/06/10 01:09:40;;;;;;;59.58;48.22;;;17.90;99.90;;;;;;5013459;28;20105;-68
2021/06/10 01:12:30;;;;;;;57.55;47.72;;;17.80;99.90;;;;;;5013966;28;20026;-68
2021/06/10 01:15:01;;;;;;;62.25;47.78;;;17.80;99.90;;;;;;5013274;28;20033;-68
2021/06/10 01:17:29;;;;;;;57.10;47.67;;;17.80;99.90;;;;;;5013285;28;20026;-67
2021/06/10 01:20:14;;;;;;;56.05;48.20;;;17.70;99.90;;;;;;5012480;28;20026;-67
2021/06/10 01:22:53;;;;;;;51.78;45.05;;;17.50;99.90;;;;;;5013251;28;20033;-67
2021/06/10 01:25:42;;;;;;;61.88;46.33;;;17.40;99.90;;;;;;5013162;28;20033;-67
2021/06/10 01:28:28;;;;;;;62.53;50.22;;;17.20;99.90;;;;;;5013575;28;20022;-67
2021/06/10 01:30:58;;;;;;;59.72;49.15;;;17.00;99.90;;;;;;5020153;28;20375;-67
2021/06/10 01:33:30;;;;;;;57.58;46.45;;;17.10;99.90;;;;;;5016260;28;20025;-67
2021/06/10 01:36:00;;;;;;;55.25;46.95;;;17.00;99.90;;;;;;5032904;28;20032;-68
2021/06/10 01:38:26;;;;;;;59.47;48.72;;;16.80;99.90;;;;;;5032869;28;20104;-67
2021/06/10 01:40:54;;;;;;;58.35;48.67;;;16.70;99.90;;;;;;5033269;28;20421;-67
2021/06/10 01:43:25;;;;;;;65.47;51.88;;;16.50;99.90;;;;;;5032639;28;20037;-67
2021/06/10 01:45:51;;;;;;;65.35;53.13;;;16.50;99.90;;;;;;5031406;28;20041;-68
2021/06/10 01:48:19;;;;;;;65.70;51.60;;;16.40;99.90;;;;;;5033365;28;20028;-67
2021/06/10 01:50:48;;;;;;;64.05;52.50;;;16.30;99.90;;;;;;5032735;28;20021;-67
2021/06/10 01:53:15;;;;;;;73.80;55.70;;;16.30;99.90;;;;;;5036236;28;20032;-67
2021/06/10 01:55:42;;;;;;;65.88;54.28;;;16.30;99.90;;;;;;5018499;28;20088;-67
2021/06/10 01:58:08;;;;;;;67.20;51.88;;;16.30;99.90;;;;;;5036291;28;20025;-67
2021/06/10 02:00:35;;;;;;;70.20;54.88;;;16.30;99.90;;;;;;5036802;28;20418;-67
2021/06/10 02:03:01;;;;;;;69.45;56.38;;;16.20;99.90;;;;;;5036455;28;20036;-67
2021/06/10 02:05:28;;;;;;;70.32;55.25;;;16.10;99.90;;;;;;5036122;28;20134;-67
2021/06/10 02:07:55;;;;;;;75.97;59.35;;;16.10;99.90;;;;;;5034659;28;20025;-68
2021/06/10 02:10:23;;;;;;;73.53;59.33;;;16.00;99.90;;;;;;5036189;28;20022;-67
2021/06/10 02:12:49;;;;;;;75.35;58.22;;;16.00;99.90;;;;;;5036202;28;20031;-68
2021/06/10 02:15:16;;;;;;;70.28;57.70;;;15.90;99.90;;;;;;5018322;28;20025;-67
2021/06/10 02:17:43;;;;;;;71.63;56.00;;;15.90;99.90;;;;;;5034896;28;20033;-67
2021/06/10 02:20:13;;;;;;;74.90;57.92;;;15.80;99.90;;;;;;5035683;28;20041;-67
2021/06/10 02:22:38;;;;;;;80.07;61.55;;;15.80;99.90;;;;;;5036383;28;20025;-67
2021/06/10 02:25:04;;;;;;;79.68;60.60;;;15.80;99.90;;;;;;5035632;28;20505;-68
2021/06/10 02:27:30;;;;;;;79.50;58.05;;;15.80;99.90;;;;;;5018034;28;20028;-67
2021/06/10 02:29:56;;;;;;;76.18;59.55;;;15.70;99.90;;;;;;5036312;28;20022;-67
2021/06/10 02:32:21;;;;;;;77.35;58.53;;;15.70;99.90;;;;;;5035270;28;20056;-67
2021/06/10 02:34:47;;;;;;;77.10;59.75;;;15.70;99.90;;;;;;5035891;28;20029;-68
2021/06/10 02:37:17;;;;;;;79.22;60.35;;;15.60;99.90;;;;;;5036125;28;20487;-67
2021/06/10 02:39:45;;;;;;;82.03;63.50;;;15.60;99.90;;;;;;5035439;28;20021;-67
2021/06/10 02:42:13;;;;;;;80.93;62.17;;;15.60;99.90;;;;;;5034513;28;20382;-67
2021/06/10 02:44:43;;;;;;;79.65;60.78;;;15.70;99.90;;;;;;5034938;28;20045;-67
2021/06/10 02:47:10;;;;;;;91.68;66.20;;;15.70;99.90;;;;;;5017601;28;20028;-67
2021/06/10 02:49:36;;;;;;;76.43;59.60;;;15.70;99.90;;;;;;5035924;28;20018;-67
2021/06/10 02:52:05;;;;;;;80.88;59.83;;;15.70;99.90;;;;;;5035853;28;20029;-67
2021/06/10 02:54:32;;;;;;;78.65;61.42;;;15.70;99.90;;;;;;5035206;28;20235;-68
2021/06/10 02:56:59;;;;;;;79.93;62.28;;;15.80;99.90;;;;;;5034932;28;20018;-68
2021/06/10 02:59:26;;;;;;;82.38;61.78;;;15.80;99.90;;;;;;5017822;28;20480;-68
2021/06/10 03:01:53;;;;;;;80.50;63.13;;;15.70;99.90;;;;;;5035093;28;20035;-67
2021/06/10 03:04:19;;;;;;;83.47;64.50;;;15.80;99.90;;;;;;5035064;28;20068;-67
2021/06/10 03:06:45;;;;;;;82.97;63.60;;;15.80;99.90;;;;;;5034945;28;20024;-67
2021/06/10 03:09:13;;;;;;;87.45;62.78;;;15.70;99.90;;;;;;5034629;28;20100;-67
2021/06/10 03:11:41;;;;;;;80.63;62.10;;;15.70;99.90;;;;;;5035234;28;20024;-67
2021/06/10 03:14:09;;;;;;;84.35;62.22;;;15.70;99.90;;;;;;5034821;28;20025;-67
2021/06/10 03:16:36;;;;;;;90.90;64.95;;;15.70;99.90;;;;;;5034825;28;20025;-67
2021/06/10 03:19:03;;;;;;;88.20;64.53;;;15.70;99.90;;;;;;5035020;28;20022;-67
2021/06/10 03:21:29;;;;;;;81.45;62.70;;;15.70;99.90;;;;;;5034708;28;20034;-67
2021/06/10 03:23:54;;;;;;;84.45;65.03;;;15.60;99.90;;;;;;5034551;28;20033;-67
2021/06/10 03:26:20;;;;;;;85.75;65.60;;;15.60;99.90;;;;;;5035230;28;20030;-67
2021/06/10 03:28:46;;;;;;;83.47;62.33;;;15.50;99.90;;;;;;5034954;28;20026;-67
2021/06/10 03:31:11;;;;;;;84.47;65.50;;;15.50;99.90;;;;;;5033326;28;20483;-67
2021/06/10 03:33:37;;;;;;;88.13;65.60;;;15.50;99.90;;;;;;5034416;28;20471;-67
2021/06/10 03:36:05;;;;;;;84.90;64.72;;;15.50;99.90;;;;;;5034787;28;20423;-67
2021/06/10 03:38:31;;;;;;;87.30;67.18;;;15.50;99.90;;;;;;5034433;28;20028;-67
2021/06/10 03:40:57;;;;;;;94.15;70.35;;;15.60;99.90;;;;;;5034938;28;20383;-67
2021/06/10 03:43:23;;;;;;;92.15;69.47;;;15.60;99.90;;;;;;5034531;28;20029;-67
2021/06/10 03:45:50;;;;;;;87.25;66.93;;;15.60;99.90;;;;;;5033792;28;20038;-67
2021/06/10 03:48:16;;;;;;;90.97;67.70;;;15.60;99.90;;;;;;5034813;28;20076;-67
2021/06/10 03:50:43;;;;;;;92.25;66.93;;;15.60;99.90;;;;;;5032855;28;20029;-67
2021/06/10 03:53:09;;;;;;;98.72;70.93;;;15.60;99.90;;;;;;5034578;28;20422;-67
2021/06/10 03:55:36;;;;;;;93.93;69.15;;;15.60;99.90;;;;;;5016448;28;20075;-67
2021/06/10 03:58:02;;;;;;;94.38;68.75;;;15.70;99.90;;;;;;5032741;28;20029;-67
2021/06/10 04:00:28;;;;;;;90.50;69.60;;;15.70;99.90;;;;;;5033974;28;20025;-67
2021/06/10 04:02:56;;;;;;;87.38;67.30;;;15.80;99.90;;;;;;5033306;28;20033;-67
2021/06/10 04:05:23;;;;;;;94.18;67.00;;;15.90;99.90;;;;;;5033966;28;20022;-67
2021/06/10 04:07:48;;;;;;;88.07;66.28;;;15.90;99.90;;;;;;5032851;28;20018;-67
2021/06/10 04:10:15;;;;;;;90.22;66.93;;;15.90;99.90;;;;;;5034350;28;20376;-67
2021/06/10 04:12:40;;;;;;;83.57;63.42;;;16.00;99.90;;;;;;5033595;28;20021;-67
2021/06/10 04:15:07;;;;;;;85.05;63.15;;;16.00;99.90;;;;;;5033901;28;20029;-67
2021/06/10 04:17:32;;;;;;;78.22;61.47;;;16.10;99.90;;;;;;5033805;28;20025;-67
2021/06/10 04:19:58;;;;;;;83.43;62.83;;;16.20;99.90;;;;;;5032494;28;20052;-67
2021/06/10 04:22:23;;;;;;;79.70;59.47;;;16.40;99.90;;;;;;5034239;28;20377;-67
2021/06/10 04:24:49;;;;;;;76.43;59.65;;;16.40;99.90;;;;;;5033327;28;20029;-67
2021/06/10 04:27:15;;;;;;;82.13;60.55;;;16.60;99.90;;;;;;5033593;28;20022;-67
2021/06/10 04:29:40;;;;;;;78.55;60.85;;;16.80;99.90;;;;;;5032749;28;20080;-67
2021/06/10 04:32:06;;;;;;;77.05;57.95;;;16.90;99.90;;;;;;5033525;28;20100;-67
2021/06/10 04:34:32;;;;;;;74.32;57.58;;;17.20;99.90;;;;;;5033500;28;20028;-67
2021/06/10 04:36:57;;;;;;;65.93;53.92;;;17.60;99.90;;;;;;5033193;28;20040;-68
2021/06/10 04:39:23;;;;;;;65.60;51.10;;;18.10;99.90;;;;;;5033530;28;20469;-67
2021/06/10 04:41:48;;;;;;;61.58;50.20;;;18.80;99.90;;;;;;5033371;28;20557;-67
2021/06/10 04:44:14;;;;;;;58.10;49.50;;;19.40;99.90;;;;;;5033231;28;20052;-68
2021/06/10 04:46:40;;;;;;;57.63;47.60;;;19.80;99.90;;;;;;5032094;28;20022;-68
2021/06/10 04:49:06;;;;;;;59.83;47.42;;;19.90;99.90;;;;;;5033045;28;20030;-68
2021/06/10 04:51:32;;;;;;;55.10;46.72;;;20.20;99.90;;;;;;5032510;28;20101;-68
2021/06/10 04:53:58;;;;;;;56.65;46.10;;;20.10;99.90;;;;;;5032066;28;20530;-68
2021/06/10 04:56:24;;;;;;;52.67;45.35;;;20.60;99.90;;;;;;5033280;28;20060;-68
2021/06/10 04:58:49;;;;;;;56.15;47.15;;;21.00;99.90;;;;;;5032023;28;20075;-66
2021/06/10 05:01:15;;;;;;;52.10;45.10;;;20.90;99.90;;;;;;5033163;28;20101;-68
2021/06/10 05:03:41;;;;;;;53.47;46.08;;;21.10;99.90;;;;;;5033301;28;20029;-66
2021/06/10 05:06:07;;;;;;;49.20;42.60;;;21.60;99.90;;;;;;5033126;28;20040;-68
2021/06/10 05:08:33;;;;;;;51.30;43.20;;;22.20;99.90;;;;;;5033458;28;20532;-68
2021/06/10 05:10:59;;;;;;;53.22;44.35;;;22.30;99.90;;;;;;5031960;28;20160;-68
2021/06/10 05:13:24;;;;;;;58.30;44.28;;;22.60;99.90;;;;;;5015331;28;20025;-68
2021/06/10 05:15:50;;;;;;;59.05;45.00;;;22.40;99.90;;;;;;5033424;28;20029;-68
2021/06/10 05:18:16;;;;;;;56.67;47.90;;;22.40;99.90;;;;;;5033080;28;20037;-68
2021/06/10 05:20:41;;;;;;;56.90;47.20;;;22.60;99.90;;;;;;5032999;28;20025;-68
2021/06/10 05:23:07;;;;;;;60.60;47.55;;;22.70;99.90;;;;;;5033237;28;20087;-66
2021/06/10 05:25:32;;;;;;;63.33;48.00;;;22.80;99.90;;;;;;5032836;28;20026;-66
2021/06/10 05:27:58;;;;;;;56.47;48.22;;;23.20;99.90;;;;;;5036694;28;20029;-66
2021/06/10 05:30:23;;;;;;;54.85;47.53;;;23.10;99.90;;;;;;5036814;28;20049;-67
2021/06/10 05:32:49;;;;;;;54.65;48.42;;;23.60;99.90;;;;;;5036783;28;20017;-66
2021/06/10 05:35:14;;;;;;;56.30;48.67;;;23.90;99.90;;;;;;5036741;28;20056;-67
2021/06/10 05:37:40;;;;;;;54.70;48.85;;;24.10;99.90;;;;;;5035171;28;20033;-66
2021/06/10 05:40:07;;;;;;;54.97;46.88;;;23.90;99.90;;;;;;5035416;28;20029;-67
2021/06/10 05:42:33;;;;;;;55.50;47.03;;;24.00;99.90;;;;;;5036958;28;20075;-67
2021/06/10 05:44:58;;;;;;;54.08;48.05;;;24.10;99.90;;;;;;5036389;28;20120;-67
2021/06/10 05:47:24;;;;;;;57.53;47.13;;;23.50;99.90;;;;;;5036465;28;20164;-67
2021/06/10 05:49:49;;;;;;;61.58;47.42;;;23.90;99.90;;;;;;5037036;28;20025;-67
2021/06/10 05:52:15;;;;;;;54.38;45.92;;;24.20;99.90;;;;;;5035812;28;20021;-67
2021/06/10 05:54:40;;;;;;;52.45;46.90;;;24.50;99.90;;;;;;5036380;28;20036;-67
2021/06/10 05:57:06;;;;;;;55.75;45.90;;;24.60;99.90;;;;;;5036506;28;20479;-67
2021/06/10 05:59:32;;;;;;;52.15;45.80;;;24.90;99.90;;;;;;5034953;28;20108;-67
2021/06/10 06:01:58;;;;;;;49.25;43.80;;;25.30;99.90;;;;;;5036755;28;20485;-67
2021/06/10 06:04:23;;;;;;;61.60;46.83;;;25.30;99.90;;;;;;5035794;28;20037;-67
2021/06/10 06:06:49;;;;;;;54.05;46.10;;;25.50;99.90;;;;;;5034827;28;20101;-67
2021/06/10 06:09:15;;;;;;;51.97;46.17;;;25.10;99.90;;;;;;5019205;28;20148;-67
2021/06/10 06:11:41;;;;;;;52.70;46.72;;;25.20;99.90;;;;;;5028385;28;20534;-67
2021/06/10 06:14:08;;;;;;;51.17;44.75;;;24.80;99.90;;;;;;5035836;28;20029;-67
2021/06/10 06:16:41;;;;;;;52.17;46.60;;;24.90;99.90;;;;;;5017614;28;20156;-69
2021/06/10 06:19:08;;;;;;;52.67;45.10;;;25.00;99.90;;;;;;5016341;28;20033;-66
2021/06/10 06:21:35;;;;;;;50.50;44.95;;;24.80;99.90;;;;;;5031589;28;20040;-67
2021/06/10 06:24:02;;;;;;;49.10;43.88;;;25.00;99.90;;;;;;5032997;28;20029;-67
2021/06/10 06:26:28;;;;;;;50.53;44.40;;;25.30;99.90;;;;;;5035851;28;20463;-67
2021/06/10 06:28:58;;;;;;;52.13;43.83;;;25.40;99.90;;;;;;5035069;28;20037;-65
2021/06/10 06:31:24;;;;;;;45.05;40.08;;;25.60;99.90;;;;;;5033797;28;20032;-67
2021/06/10 06:33:49;;;;;;;45.70;40.90;;;25.60;99.90;;;;;;5028452;28;20026;-67
2021/06/10 06:36:15;;;;;;;47.35;41.58;;;25.80;99.90;;;;;;5041565;28;20033;-67
2021/06/10 06:38:41;;;;;;;43.00;38.20;;;26.00;99.90;;;;;;5030222;28;20084;-67
2021/06/10 06:41:06;;;;;;;44.53;40.03;;;26.30;99.90;;;;;;5028673;28;20022;-67
2021/06/10 06:43:32;;;;;;;44.53;39.28;;;26.50;99.90;;;;;;5031020;28;20033;-67
2021/06/10 06:45:58;;;;;;;43.30;38.75;;;26.70;99.90;;;;;;5026310;28;20129;-67
2021/06/10 06:48:24;;;;;;;43.85;39.08;;;27.00;99.90;;;;;;5033301;28;20083;-65
2021/06/10 06:50:49;;;;;;;43.47;39.15;;;27.30;99.90;;;;;;5029014;28;20033;-66
2021/06/10 06:53:15;;;;;;;41.38;36.67;;;27.20;99.90;;;;;;5033000;28;20029;-67
2021/06/10 06:55:41;;;;;;;39.75;35.67;;;27.10;99.90;;;;;;5034013;28;20033;-66
2021/06/10 06:58:07;;;;;;;38.33;34.10;;;27.40;99.90;;;;;;5034524;28;20021;-66
2021/06/10 07:00:33;;;;;;;37.05;32.17;;;27.40;99.90;;;;;;5034192;28;20056;-67
2021/06/10 07:02:58;;;;;;;34.60;29.23;;;27.10;99.90;;;;;;5030201;28;20431;-68
2021/06/10 07:05:24;;;;;;;29.55;26.48;;;27.30;99.90;;;;;;5032872;28;20120;-68
2021/06/10 07:07:49;;;;;;;35.53;27.98;;;27.40;99.90;;;;;;5035182;28;20041;-67
2021/06/10 07:10:15;;;;;;;36.42;29.00;;;27.60;99.90;;;;;;5034150;28;20065;-68
2021/06/10 07:12:40;;;;;;;30.88;27.65;;;28.10;99.90;;;;;;5026916;28;20021;-68
2021/06/10 07:15:06;;;;;;;33.10;29.70;;;27.80;99.90;;;;;;5033637;28;20026;-68
2021/06/10 07:17:32;;;;;;;32.60;29.10;;;28.30;99.90;;;;;;5013444;28;20038;-68
2021/06/10 07:20:00;;;;;;;33.80;30.40;;;27.80;99.90;;;;;;5015043;28;20018;-68
2021/06/10 07:22:29;;;;;;;31.83;28.52;;;27.60;99.90;;;;;;5016855;28;20033;-68
2021/06/10 07:24:55;;;;;;;29.17;26.20;;;28.00;99.90;;;;;;5029221;28;20025;-66
2021/06/10 07:27:20;;;;;;;26.75;24.02;;;28.30;99.90;;;;;;5030919;28;20048;-66
2021/06/10 07:29:46;;;;;;;25.23;22.58;;;28.60;99.90;;;;;;5021831;28;20018;-66
2021/06/10 07:32:12;;;;;;;25.42;22.50;;;28.90;98.10;;;;;;5018954;28;20073;-67
2021/06/10 07:34:38;;;;;;;19.45;17.42;;;28.80;97.70;;;;;;5023002;28;20059;-68
2021/06/10 07:37:07;;;;;;;19.60;16.15;;;29.00;97.20;;;;;;5022798;28;20029;-66
2021/06/10 07:39:33;;;;;;;18.15;16.30;;;29.20;95.40;;;;;;5032110;28;20057;-66
2021/06/10 07:42:00;;;;;;;18.60;16.80;;;28.90;95.20;;;;;;5022073;28;20100;-68
2021/06/10 07:44:27;;;;;;;18.02;14.02;;;28.70;94.70;;;;;;5031011;28;20033;-68
2021/06/10 07:46:52;;;;;;;11.15;9.43;;;28.80;94.10;;;;;;5032326;28;20083;-68
2021/06/10 07:49:18;;;;;;;12.85;8.77;;;28.60;92.70;;;;;;5016607;28;20033;-66
2021/06/10 07:51:44;;;;;;;11.73;9.98;;;28.50;92.70;;;;;;5027484;28;20510;-68
2021/06/10 07:54:09;;;;;;;13.00;11.52;;;28.10;92.60;;;;;;5031852;28;20040;-66
2021/06/10 07:56:35;;;;;;;15.18;12.23;;;28.40;93.60;;;;;;5034209;28;20033;-68
2021/06/10 07:59:01;;;;;;;15.82;14.15;;;29.30;93.70;;;;;;5032851;28;20033;-66
2021/06/10 08:01:26;;;;;;;16.85;15.05;;;29.80;91.40;;;;;;5034212;28;20021;-68
2021/06/10 08:03:52;;;;;;;16.40;14.18;;;28.90;91.90;;;;;;5032467;28;20032;-68
2021/06/10 08:06:17;;;;;;;16.42;12.93;;;28.50;92.50;;;;;;5033747;28;20119;-68
2021/06/10 08:08:43;;;;;;;11.65;10.40;;;28.70;92.80;;;;;;5038640;28;20581;-68
2021/06/10 08:11:10;;;;;;;11.65;9.95;;;29.10;91.90;;;;;;5053331;28;20485;-68
2021/06/10 08:13:36;;;;;;;12.27;11.07;;;29.60;91.70;;;;;;5041505;28;20366;-67
2021/06/10 08:16:01;;;;;;;11.48;10.30;;;29.70;90.80;;;;;;5033084;28;20037;-66
2021/06/10 08:18:28;;;;;;;9.13;7.40;;;29.60;90.60;;;;;;5032450;28;20079;-67
2021/06/10 08:20:56;;;;;;;9.88;7.75;;;29.50;89.40;;;;;;5029680;28;20540;-68
2021/06/10 08:23:22;;;;;;;11.65;8.50;;;29.60;90.00;;;;;;5021724;28;20463;-66
2021/06/10 08:25:47;;;;;;;8.05;6.85;;;29.80;89.00;;;;;;5032741;28;20032;-66
2021/06/10 08:28:14;;;;;;;8.10;7.30;;;29.90;90.30;;;;;;5033220;28;20540;-66
2021/06/10 08:30:40;;;;;;;11.23;7.95;;;30.20;87.70;;;;;;5030904;28;20021;-66
2021/06/10 08:33:06;;;;;;;10.82;9.73;;;30.60;87.20;;;;;;5032978;28;20038;-66
2021/06/10 08:35:33;;;;;;;9.10;8.20;;;30.40;83.20;;;;;;5032333;28;20037;-66
2021/06/10 08:38:00;;;;;;;9.30;8.00;;;30.00;87.10;;;;;;5027603;28;20442;-66
2021/06/10 08:40:25;;;;;;;10.55;7.90;;;30.00;85.00;;;;;;5013938;28;20104;-68
2021/06/10 08:42:51;;;;;;;15.57;7.70;;;29.60;86.70;;;;;;5031776;28;20037;-67
2021/06/10 08:45:19;;;;;;;8.50;7.50;;;29.40;87.50;;;;;;5032146;28;20049;-68
2021/06/10 08:47:47;;;;;;;7.93;7.22;;;30.00;85.00;;;;;;5028361;28;20025;-68
2021/06/10 08:50:18;;;;;;;8.45;7.55;;;30.10;85.50;;;;;;5032680;28;20017;-68
2021/06/10 08:52:44;;;;;;;10.93;7.65;;;30.20;83.20;;;;;;5029115;28;20048;-68
2021/06/10 08:55:11;;;;;;;11.80;6.93;;;29.90;83.20;;;;;;5032649;28;20364;-68
2021/06/10 08:57:37;;;;;;;9.38;7.15;;;29.70;86.00;;;;;;5031877;28;20032;-68
2021/06/10 09:00:04;;;;;;;8.80;7.05;;;30.00;83.00;;;;;;5011932;28;20391;-68
2021/06/10 09:02:30;;;;;;;9.70;7.75;;;29.40;84.30;;;;;;5030728;28;20069;-68
2021/06/10 09:05:05;;;;;;;9.18;8.20;;;28.90;85.60;;;;;;5033725;28;20545;-68
2021/06/10 09:07:35;;;;;;;10.60;9.00;;;28.80;87.00;;;;;;5029074;28;20026;-67
2021/06/10 09:10:02;;;;;;;11.23;7.05;;;29.90;84.20;;;;;;5037077;28;20026;-67
2021/06/10 09:12:28;;;;;;;7.55;6.78;;;30.60;83.40;;;;;;5028368;28;20036;-67
2021/06/10 09:14:57;;;;;;;8.40;7.50;;;31.40;79.20;;;;;;5036660;28;20030;-67
2021/06/10 09:17:41;;;;;;;7.28;6.57;;;31.20;79.10;;;;;;5030482;28;20018;-68
2021/06/10 09:23:19;;;;;;;12.13;9.15;;;31.50;79.20;;;;;;5166221;27;89322;-67
2021/06/10 09:25:48;;;;;;;8.57;7.78;;;30.60;77.50;;;;;;5150842;27;20387;-67
2021/06/10 09:28:14;;;;;;;11.05;9.95;;;30.30;80.70;;;;;;5137189;27;20118;-67
2021/06/10 09:30:45;;;;;;;8.95;8.13;;;30.00;79.60;;;;;;5134258;27;20030;-67
2021/06/10 09:33:15;;;;;;;10.82;9.70;;;30.00;80.10;;;;;;5123418;27;20040;-67
2021/06/10 09:35:43;;;;;;;10.43;9.30;;;30.30;78.20;;;;;;5148684;27;20019;-67
2021/06/10 09:38:15;;;;;;;11.02;8.25;;;30.30;77.90;;;;;;5118848;27;20118;-67
2021/06/10 09:40:41;;;;;;;10.45;8.45;;;30.30;82.30;;;;;;5130358;27;20084;-67
2021/06/10 09:43:07;;;;;;;12.25;9.98;;;31.40;78.10;;;;;;5135135;27;20011;-67
2021/06/10 09:45:33;;;;;;;8.98;7.35;;;29.70;79.90;;;;;;5133666;27;20016;-67
2021/06/10 09:48:01;;;;;;;10.77;9.13;;;29.20;83.10;;;;;;5129941;27;20027;-67
2021/06/10 09:50:30;;;;;;;8.93;8.02;;;29.80;83.10;;;;;;5134919;27;20055;-67
2021/06/10 09:53:00;;;;;;;6.97;5.75;;;30.90;80.80;;;;;;5132096;27;20023;-67
2021/06/10 09:58:20;;;;;;;7.05;5.20;;;31.50;79.30;;;;;;5126323;27;20140;-67
2021/06/10 10:00:49;;;;;;;6.55;4.90;;;31.70;75.30;;;;;;5110769;28;20504;-67
2021/06/10 10:03:40;;;;;;;5.70;4.85;;;31.40;73.80;;;;;;5109897;28;20051;-67
2021/06/10 10:06:17;;;;;;;8.20;4.32;;;30.40;77.30;;;;;;5105134;28;20047;-67
2021/06/10 10:08:43;;;;;;;7.35;4.57;;;30.60;78.60;;;;;;5110504;28;20031;-67
2021/06/10 10:11:11;;;;;;;5.47;4.63;;;30.90;76.50;;;;;;5107727;28;20434;-67
2021/06/10 10:13:37;;;;;;;6.45;4.50;;;30.90;77.20;;;;;;5097282;28;20078;-67
2021/06/10 10:16:04;;;;;;;7.15;5.50;;;29.60;80.80;;;;;;5107928;28;20024;-67
2021/06/10 10:18:30;;;;;;;10.05;5.20;;;29.00;80.10;;;;;;5107294;28;20063;-67
2021/06/10 10:21:04;;;;;;;9.02;4.90;;;28.40;81.60;;;;;;5110099;28;20042;-67
2021/06/10 10:23:31;;;;;;;8.00;5.75;;;28.00;83.20;;;;;;5107556;28;20069;-67
2021/06/10 10:25:59;;;;;;;6.93;4.88;;;29.10;81.60;;;;;;5109735;28;20031;-67
2021/06/10 10:28:27;;;;;;;10.32;5.18;;;29.30;79.30;;;;;;5099624;28;20080;-67
2021/06/10 10:30:52;;;;;;;5.78;4.88;;;29.30;79.40;;;;;;5089785;28;20504;-66
2021/06/10 10:33:20;;;;;;;5.22;4.72;;;30.00;77.30;;;;;;5108837;28;20112;-67
2021/06/10 10:36:03;;;;;;;6.30;5.40;;;29.90;75.80;;;;;;5108573;28;20042;-67
2021/06/10 10:38:36;;;;;;;4.80;4.32;;;30.40;74.90;;;;;;5110298;28;20027;-67
2021/06/10 10:41:03;;;;;;;;;;;30.30;77.80;;;;;;5109606;28;20032;-67
2021/06/10 10:43:30;;;;;;;6.38;5.88;;;30.20;78.60;;;;;;5106483;28;19947;-68
2021/06/10 10:46:17;;;;;;;6.80;5.90;;;28.80;80.00;;;;;;5119846;28;20028;-66
2021/06/10 10:48:44;;;;;;;8.95;4.38;;;28.40;81.60;;;;;;5110008;28;20059;-67
2021/06/10 10:51:36;;;;;;;4.57;4.13;;;28.80;80.20;;;;;;5106518;28;20032;-66
2021/06/10 10:54:06;;;;;;;4.30;3.63;;;28.40;80.10;;;;;;5109506;28;20028;-66
2021/06/10 10:56:36;;;;;;;4.75;3.88;;;28.00;80.80;;;;;;5107934;28;20036;-67
2021/06/10 10:59:18;;;;;;;9.82;4.60;;;28.60;80.60;;;;;;5093995;28;20481;-66
2021/06/10 11:02:05;;;;;;;21.57;8.30;;;28.30;79.10;;;;;;5084995;28;20044;-66
2021/06/10 11:04:55;;;;;;;8.73;5.15;;;28.30;81.90;;;;;;5107893;28;20050;-67
2021/06/10 11:10:36;;;;;;;10.70;5.10;;;28.70;78.80;;;;;;5113737;27;20157;-66
2021/06/10 11:13:15;;;;;;;5.18;4.60;;;28.60;79.40;;;;;;5078096;28;20021;-66
2021/06/10 11:15:57;;;;;;;8.82;4.15;;;28.60;80.70;;;;;;5070108;28;20021;-66
2021/06/10 11:18:46;;;;;;;7.63;4.88;;;28.20;83.50;;;;;;5060089;28;20024;-67
2021/06/10 11:21:33;;;;;;;5.05;4.55;;;27.80;82.00;;;;;;5088867;28;20106;-66
2021/06/10 11:24:21;;;;;;;7.38;4.20;;;27.70;83.20;;;;;;5089440;28;20099;-66
2021/06/10 11:26:49;;;;;;;7.22;4.15;;;27.80;86.80;;;;;;5089527;28;20042;-67
2021/06/10 11:29:16;;;;;;;5.88;4.53;;;27.80;82.50;;;;;;5092626;28;20032;-67
2021/06/10 11:31:42;;;;;;;5.15;3.95;;;28.20;81.90;;;;;;5088642;28;20024;-66
2021/06/10 11:34:28;;;;;;;4.93;3.85;;;28.70;83.30;;;;;;5087255;28;20488;-66
2021/06/10 11:36:54;;;;;;;9.50;4.60;;;28.30;78.00;;;;;;5089385;28;20096;-66
2021/06/10 11:39:20;;;;;;;6.80;4.60;;;28.50;81.40;;;;;;5090075;28;20029;-66
2021/06/10 11:41:46;;;;;;;3.97;3.53;;;28.70;80.80;;;;;;5087741;28;20029;-66
2021/06/10 11:44:12;;;;;;;4.57;3.42;;;29.00;77.00;;;;;;5087835;28;20030;-66
2021/06/10 11:46:39;;;;;;;6.75;3.10;;;29.00;75.80;;;;;;5084788;28;20039;-66
2021/06/10 11:49:07;;;;;;;5.57;3.55;;;28.90;75.40;;;;;;5089102;28;20078;-66
2021/06/10 11:51:36;;;;;;;7.57;3.63;;;29.10;75.00;;;;;;5089416;28;20458;-66
2021/06/10 11:54:11;;;;;;;5.50;4.00;;;29.20;76.00;;;;;;5087722;28;20032;-66
2021/06/10 11:56:38;;;;;;;4.30;3.60;;;29.50;73.10;;;;;;5089540;28;20056;-66
2021/06/10 11:59:28;;;;;;;5.03;3.47;;;29.30;75.00;;;;;;5089246;28;20032;-67
2021/06/10 12:02:02;;;;;;;4.30;3.53;;;29.30;75.70;;;;;;5101618;28;20035;-66
2021/06/10 12:04:30;;;;;;;5.18;3.58;;;29.00;75.10;;;;;;5088203;28;20357;-66
2021/06/10 12:07:14;;;;;;;3.20;2.90;;;29.00;72.30;;;;;;5089565;28;20069;-66
2021/06/10 12:09:58;;;;;;;6.38;3.70;;;28.90;78.50;;;;;;5069129;28;20044;-66
2021/06/10 12:12:45;;;;;;;6.38;4.03;;;28.70;74.80;;;;;;5088246;28;20157;-66
2021/06/10 12:18:04;;;;;;;7.72;3.78;;;28.20;75.10;;;;;;5126054;27;20129;-67
2021/06/10 12:20:33;;;;;;;7.18;3.22;;;28.70;75.20;;;;;;5109237;28;20100;-66
2021/06/10 12:23:00;;;;;;;6.88;3.70;;;28.70;74.60;;;;;;5105214;28;20476;-67
2021/06/10 12:25:29;;;;;;;4.00;3.30;;;28.50;77.10;;;;;;5109729;28;20465;-67
2021/06/10 12:27:57;;;;;;;3.95;3.28;;;28.60;73.00;;;;;;5107752;28;20019;-67
2021/06/10 12:33:19;;;;;;;4.50;3.90;;;28.80;74.30;;;;;;5126557;27;20532;-66
2021/06/10 12:35:47;;;;;;;7.15;3.47;;;28.50;70.70;;;;;;5096578;28;20131;-66
2021/06/10 12:38:14;;;;;;;3.78;2.70;;;28.70;72.40;;;;;;5094499;28;20028;-66
2021/06/10 12:40:44;;;;;;;4.95;3.20;;;29.00;73.60;;;;;;5086901;28;20104;-66
2021/06/10 12:43:17;;;;;;;4.65;2.70;;;29.30;73.60;;;;;;5082413;28;20377;-66
2021/06/10 12:45:43;;;;;;;4.00;3.17;;;29.30;71.70;;;;;;5094477;28;20099;-66
2021/06/10 12:48:29;;;;;;;4.95;3.17;;;28.80;71.00;;;;;;5097159;28;20552;-66
2021/06/10 12:51:17;;;;;;;3.72;3.22;;;28.90;74.60;;;;;;5083434;28;20470;-66
2021/06/10 12:54:03;;;;;;;6.47;3.45;;;28.60;71.80;;;;;;5076280;28;20020;-68